Weather at Louisville Muhammad Ali International Airport

Public forecast

Using degrees Fahrenheit for public forecast. Weather courtesy of forecast.io.

Current aviation weather report (METAR) for Louisville Muhammad Ali International Airport

Retrieved 2020/10/26 20:56 UTC (4 minutes ago):

KSDF 262056Z 35008KT 10SM FEW005 OVC014 11/08 A3018 RMK AO2 SLP220 T01110078 53004

Aviation forecast (TAF) for Louisville Muhammad Ali International Airport

Retrieved 2020/10/26 18:39 UTC (2 hours ago):

TAF KSDF 261736Z 2618/2724 33007KT P6SM SCT012 OVC022 TEMPO 2618/2621 5SM -DZ BR OVC012 FM270100 35007KT P6SM SCT025 BKN050 PROB30 2703/2709 5SM -DZ BR SCT008 OVC020 FM270900 36005KT 6SM BR OVC025 FM271200 36005KT 4SM -DZ BR SCT008 OVC015 FM271800 35005KT P6SM VCSH OVC025